Plaisance, Maurice

15:35 MUT le 27 février 2015 (GMT +0400)
Pointe d'Esny Mauritius | Change Station
CLOSE
Current Station
Stations météorologiques personnelles
Location: Grand Port, MAURITIUS
Altitude: 10 ft
Stations météo à proximité

Alt. 10 ft 20.44 °S, 57.73 °E | Updated 8 minutes ago

Mostly Cloudy
Nuageux
83.2 ° F
Paraît 94 ° F
N
15.0
Vent Variable Vent de Sud

Aujourd'hui
Haut(e) -- | Bas -- ° F
--% Risque de précip.
Hier
Haut(e) -- | Bas -- ° F
Precip. -- pouce
6:05 AM 6:38 PM
Lune gibbeuse croissante, 68% visible
Pression 29.71 pouce
Visibilité 6.2 Miles terrestres
Nuages Nuageux 1600 ft
indice de chaleur 94 ° F
Point de rosée 78 ° F
Humidité 85%
Précipitations 0.00 pouce
Profondeur de la couche neigeuse Non disponible.
UV 5 sur 12
Pollen Non disponible.
Qualité de l'air Non disponible.
Flu Activity Non disponible.
METAR FIMP 271100Z 17012KT 9999 BKN016 29/25 Q1006

More Conditions Fewer Conditions

Pression 29.71 pouce
Visibilité 6.2 Miles terrestres
Nuages Nuageux 1600 ft
indice de chaleur 94 ° F
Point de rosée 78 ° F
Humidité 85%
Précipitations 0.00 pouce
Profondeur de la couche neigeuse Non disponible.
UV 5 sur 12
Pollen Non disponible.
Qualité de l'air Non disponible.
Flu Activity Non disponible.
METAR FIMP 271100Z 17012KT 9999 BKN016 29/25 Q1006

More Conditions Fewer Conditions

10-Day Weather Forecast

Almanac

Astronomie

Feb. 27, 2015 Lever Coucher
Temps réel
Crépuscule civil
Crépuscule nautique
Crépuscule astronomique
Lune
Durée de lumière visible
Longueur du jour
Tomorrow will be .
, % of the Moon is Illuminated

Extrêmes aujourd'hui

Country Highs Country Lows

Community

WunderPhotos

Upload Photos

1,800,656 Photos téléchargées !

WunderBlogs® & News

Nearby

Qualité de l'air

  Qualité de l'air Indice de la qualité de l'air Polluant
Not available.

Épaisseur de neige

Station Depth Altitude

Activité sismique

Ville Distance Mag. Time & Date
Minimum magnitude displayed is 2.5.

Températures des eaux côtières

Lieu Température

Stations météo à proximité